createdAt,value
2022-09-24T00:01:36.707Z,9.40
2022-09-24T00:04:09.821Z,9.40
2022-09-24T00:06:41.098Z,9.40
2022-09-24T00:09:08.684Z,9.40
2022-09-24T00:11:35.573Z,9.40
2022-09-24T00:14:02.468Z,9.50
2022-09-24T00:16:33.994Z,9.50
2022-09-24T00:19:02.868Z,9.50
2022-09-24T00:21:35.383Z,9.50
2022-09-24T00:24:06.744Z,9.50
2022-09-24T00:26:51.794Z,9.50
2022-09-24T00:29:24.269Z,9.50
2022-09-24T00:31:52.761Z,9.40
2022-09-24T00:34:20.674Z,9.40
2022-09-24T00:36:48.433Z,9.40
2022-09-24T00:39:15.949Z,9.40
2022-09-24T00:41:47.251Z,9.40
2022-09-24T00:44:42.106Z,9.40
2022-09-24T00:47:27.125Z,9.40
2022-09-24T00:50:13.161Z,9.40
2022-09-24T00:52:45.563Z,9.40
2022-09-24T00:55:14.267Z,9.30
2022-09-24T00:57:42.149Z,9.30
2022-09-24T01:00:09.922Z,9.40
2022-09-24T01:02:39.220Z,9.40
2022-09-24T01:05:06.292Z,9.40
2022-09-24T01:07:33.106Z,9.40
2022-09-24T01:09:59.925Z,9.40
2022-09-24T01:12:37.842Z,9.40
2022-09-24T01:15:30.836Z,9.40
2022-09-24T01:18:09.671Z,9.40
2022-09-24T01:21:07.354Z,9.40
2022-09-24T01:24:40.421Z,9.40
2022-09-24T01:27:15.964Z,9.40
2022-09-24T01:29:53.313Z,9.30
2022-09-24T01:32:34.459Z,9.40
2022-09-24T01:35:06.714Z,9.40
2022-09-24T01:37:37.739Z,9.40
2022-09-24T01:40:07.692Z,9.40
2022-09-24T01:42:36.940Z,9.40
2022-09-24T01:45:04.779Z,9.40
2022-09-24T01:47:39.732Z,9.50
2022-09-24T01:50:12.798Z,9.40
2022-09-24T01:53:14.895Z,9.50
2022-09-24T01:55:48.157Z,9.40
2022-09-24T01:58:55.814Z,9.40
2022-09-24T02:01:29.814Z,9.40
2022-09-24T02:03:59.411Z,9.40
2022-09-24T02:06:37.929Z,9.40
2022-09-24T02:09:05.030Z,9.40
2022-09-24T02:11:35.900Z,9.40
2022-09-24T02:14:14.313Z,9.40
2022-09-24T02:16:46.802Z,9.40
2022-09-24T02:19:21.690Z,9.40
2022-09-24T02:21:49.660Z,9.40
2022-09-24T02:24:24.766Z,9.30
2022-09-24T02:26:51.994Z,9.30
2022-09-24T02:29:18.922Z,9.30
2022-09-24T02:31:48.778Z,9.30
2022-09-24T02:34:24.884Z,9.30
2022-09-24T02:37:07.475Z,9.20
2022-09-24T02:39:34.362Z,9.20
2022-09-24T02:42:02.206Z,9.20
2022-09-24T02:44:31.140Z,9.10
2022-09-24T02:46:58.515Z,9.20
2022-09-24T02:49:25.461Z,9.20
2022-09-24T02:51:52.508Z,9.20
2022-09-24T02:54:19.340Z,9.20
2022-09-24T02:56:46.082Z,9.30
2022-09-24T02:59:13.094Z,9.30
2022-09-24T03:01:40.011Z,9.40
2022-09-24T03:04:07.095Z,9.40
2022-09-24T03:06:34.350Z,9.40
2022-09-24T03:09:03.155Z,9.40
2022-09-24T03:11:33.093Z,9.40
2022-09-24T03:14:00.325Z,9.40
2022-09-24T03:16:27.522Z,9.40
2022-09-24T03:18:54.435Z,9.50
2022-09-24T03:21:22.519Z,9.40
2022-09-24T03:23:49.985Z,9.50
2022-09-24T03:26:17.834Z,9.50
2022-09-24T03:28:44.887Z,9.50
2022-09-24T03:31:12.530Z,9.50
2022-09-24T03:33:45.760Z,9.50
2022-09-24T03:36:14.160Z,9.50
2022-09-24T03:38:42.541Z,9.50
2022-09-24T03:41:10.816Z,9.50
2022-09-24T03:43:37.910Z,9.50
2022-09-24T03:46:06.927Z,9.50
2022-09-24T03:48:36.223Z,9.50
2022-09-24T03:51:18.804Z,9.50
2022-09-24T03:53:46.451Z,9.50
2022-09-24T03:56:13.491Z,9.50
2022-09-24T03:58:42.033Z,9.50
2022-09-24T04:01:10.596Z,9.50
2022-09-24T04:03:37.872Z,9.50
2022-09-24T04:06:05.889Z,9.50
2022-09-24T04:08:32.928Z,9.50
2022-09-24T04:11:00.290Z,9.50
2022-09-24T04:13:27.097Z,9.50
2022-09-24T04:15:55.080Z,9.50
2022-09-24T04:18:22.571Z,9.50
2022-09-24T04:20:49.559Z,9.50
2022-09-24T04:23:16.456Z,9.50
2022-09-24T04:25:43.720Z,9.50
2022-09-24T04:28:10.855Z,9.60
2022-09-24T04:30:38.324Z,9.60
2022-09-24T04:33:06.095Z,9.60
2022-09-24T04:35:35.454Z,9.60
2022-09-24T04:38:02.940Z,9.60
2022-09-24T04:40:30.174Z,9.60
2022-09-24T04:42:57.521Z,9.60
2022-09-24T04:45:25.062Z,9.50
2022-09-24T04:47:53.683Z,9.60
2022-09-24T04:50:21.097Z,9.60
2022-09-24T04:52:48.110Z,9.60
2022-09-24T04:55:14.947Z,9.60
2022-09-24T04:57:41.830Z,9.50
2022-09-24T05:00:14.638Z,9.50
2022-09-24T05:02:42.213Z,9.50
2022-09-24T05:05:09.851Z,9.50
2022-09-24T05:07:37.035Z,9.60
2022-09-24T05:10:04.262Z,9.60
2022-09-24T05:12:31.466Z,9.60
2022-09-24T05:14:58.246Z,9.60
2022-09-24T05:17:24.945Z,9.60
2022-09-24T05:19:51.674Z,9.60
2022-09-24T05:22:18.410Z,9.60
2022-09-24T05:24:45.137Z,9.70
2022-09-24T05:27:12.217Z,9.70
2022-09-24T05:29:43.506Z,9.70
2022-09-24T05:32:13.396Z,9.70
2022-09-24T05:34:41.408Z,9.80
2022-09-24T05:37:08.522Z,9.80
2022-09-24T05:39:35.295Z,9.80
2022-09-24T05:42:04.331Z,9.90
2022-09-24T05:44:34.264Z,9.90
2022-09-24T05:47:01.082Z,9.90
2022-09-24T05:49:27.958Z,9.90
2022-09-24T05:51:54.724Z,10.00
2022-09-24T05:54:21.525Z,10.00
2022-09-24T05:56:48.239Z,10.10
2022-09-24T05:59:14.953Z,10.10
2022-09-24T06:01:41.782Z,10.20
2022-09-24T06:04:11.669Z,10.30
2022-09-24T06:06:38.445Z,10.30
2022-09-24T06:09:05.741Z,10.40
2022-09-24T06:11:39.997Z,10.50
2022-09-24T06:14:08.552Z,10.50
2022-09-24T06:16:35.657Z,10.60
2022-09-24T06:19:04.706Z,10.60
2022-09-24T06:21:31.455Z,10.70
2022-09-24T06:23:58.244Z,10.70
2022-09-24T06:26:26.351Z,10.70
2022-09-24T06:28:53.188Z,10.70
2022-09-24T06:31:20.016Z,10.80
2022-09-24T06:33:46.895Z,10.80
2022-09-24T06:36:14.158Z,10.80
2022-09-24T06:38:45.393Z,10.90
2022-09-24T06:41:12.364Z,10.90
2022-09-24T06:43:39.697Z,10.90
2022-09-24T06:46:06.626Z,11.00
2022-09-24T06:48:33.470Z,11.00
2022-09-24T06:51:00.236Z,11.10
2022-09-24T06:53:26.979Z,11.20
2022-09-24T06:55:58.714Z,11.20
2022-09-24T06:58:26.075Z,11.20
2022-09-24T07:01:04.138Z,11.30
2022-09-24T07:03:32.923Z,11.30
2022-09-24T07:06:02.103Z,11.40
2022-09-24T07:08:28.912Z,11.40
2022-09-24T07:10:55.840Z,11.40
2022-09-24T07:13:22.855Z,11.40
2022-09-24T07:15:51.118Z,11.40
2022-09-24T07:18:19.346Z,11.50
2022-09-24T07:20:54.073Z,11.50
2022-09-24T07:23:21.674Z,11.50
2022-09-24T07:25:49.089Z,11.60
2022-09-24T07:28:16.262Z,11.70
2022-09-24T07:30:43.090Z,11.70
2022-09-24T07:33:11.007Z,11.80
2022-09-24T07:35:39.189Z,11.70
2022-09-24T07:38:08.776Z,11.80
2022-09-24T07:40:35.659Z,11.90
2022-09-24T07:43:02.464Z,12.00
2022-09-24T07:45:31.110Z,12.00
2022-09-24T07:48:02.138Z,12.10
2022-09-24T07:50:32.313Z,12.20
2022-09-24T07:53:00.562Z,12.40
2022-09-24T07:55:27.710Z,12.50
2022-09-24T07:57:55.792Z,12.60
2022-09-24T08:00:24.177Z,12.70
2022-09-24T08:02:53.815Z,12.90
2022-09-24T08:05:20.704Z,13.00
2022-09-24T08:07:55.422Z,13.10
2022-09-24T08:10:23.089Z,13.20
2022-09-24T08:12:49.951Z,13.40
2022-09-24T08:15:16.978Z,13.50
2022-09-24T08:17:43.742Z,13.60
2022-09-24T08:20:12.239Z,13.60
2022-09-24T08:22:39.012Z,13.70
2022-09-24T08:25:06.195Z,13.80
2022-09-24T08:27:33.002Z,13.90
2022-09-24T08:30:00.708Z,14.00
2022-09-24T08:32:29.448Z,14.00
2022-09-24T08:34:56.238Z,14.00
2022-09-24T08:37:22.993Z,14.10
2022-09-24T08:39:49.736Z,14.10
2022-09-24T08:42:30.756Z,14.20
2022-09-24T08:45:17.588Z,14.20
2022-09-24T08:47:52.759Z,14.30
2022-09-24T08:50:26.805Z,14.40
2022-09-24T08:53:06.736Z,14.50
2022-09-24T08:55:50.132Z,14.60
2022-09-24T08:58:44.270Z,14.70
2022-09-24T09:01:11.576Z,14.70
2022-09-24T09:04:10.903Z,14.70
2022-09-24T09:07:01.797Z,14.60
2022-09-24T09:09:49.904Z,14.50
2022-09-24T09:12:35.197Z,14.40
2022-09-24T09:15:13.228Z,14.30
2022-09-24T09:17:46.002Z,14.30
2022-09-24T09:20:21.419Z,14.20
2022-09-24T09:22:51.103Z,14.20
2022-09-24T09:25:21.867Z,14.20
2022-09-24T09:28:15.118Z,14.10
2022-09-24T09:31:19.296Z,14.10
2022-09-24T09:34:29.735Z,14.10
2022-09-24T09:37:05.433Z,14.20
2022-09-24T09:40:09.965Z,14.20
2022-09-24T09:42:40.362Z,14.30
2022-09-24T09:45:33.350Z,14.40
2022-09-24T09:48:03.228Z,14.40
2022-09-24T09:50:41.689Z,14.50
2022-09-24T09:53:19.634Z,14.50
2022-09-24T09:56:18.058Z,14.40
2022-09-24T09:58:52.968Z,14.40
2022-09-24T10:01:19.958Z,14.30
2022-09-24T10:03:46.645Z,14.30
2022-09-24T10:06:22.296Z,14.40
2022-09-24T10:08:50.331Z,14.50
2022-09-24T10:11:18.968Z,14.60
2022-09-24T10:13:46.279Z,14.60
2022-09-24T10:16:17.300Z,14.70
2022-09-24T10:18:48.953Z,14.80
2022-09-24T10:21:35.119Z,14.80
2022-09-24T10:24:05.151Z,14.70
2022-09-24T10:26:44.739Z,14.70
2022-09-24T10:29:51.975Z,14.70
2022-09-24T10:32:26.772Z,14.80
2022-09-24T10:35:05.885Z,14.90
2022-09-24T10:37:32.721Z,14.80
2022-09-24T10:40:12.802Z,15.00
2022-09-24T10:42:39.710Z,14.90
2022-09-24T10:45:14.051Z,14.90
2022-09-24T10:48:13.972Z,15.00
2022-09-24T10:51:11.722Z,15.00
2022-09-24T10:54:04.521Z,15.00
2022-09-24T10:56:46.255Z,14.90
2022-09-24T10:59:40.037Z,15.00
2022-09-24T11:02:22.041Z,14.90
2022-09-24T11:04:54.983Z,14.80
2022-09-24T11:07:43.665Z,14.70
2022-09-24T11:10:57.951Z,14.70
2022-09-24T11:13:51.454Z,14.70
2022-09-24T11:16:44.847Z,14.60
2022-09-24T11:19:37.046Z,14.60
2022-09-24T11:22:03.679Z,14.60
2022-09-24T11:24:48.464Z,14.60
2022-09-24T11:27:42.544Z,14.60
2022-09-24T11:30:19.194Z,14.60
2022-09-24T11:33:18.282Z,14.60
2022-09-24T11:36:15.574Z,14.70
2022-09-24T11:38:57.360Z,14.70
2022-09-24T11:42:19.810Z,14.70
2022-09-24T11:45:05.109Z,14.70
2022-09-24T11:47:40.800Z,14.70
2022-09-24T11:50:29.247Z,14.70
2022-09-24T11:53:31.577Z,14.70
2022-09-24T11:55:59.649Z,14.70
2022-09-24T11:58:43.472Z,14.70
2022-09-24T12:01:15.880Z,14.70
2022-09-24T12:03:53.124Z,14.70
2022-09-24T12:06:45.339Z,14.70
2022-09-24T12:09:19.936Z,14.70
2022-09-24T12:14:28.386Z,14.70
2022-09-24T12:17:03.382Z,14.80
2022-09-24T12:20:00.396Z,14.90
2022-09-24T12:22:28.769Z,14.90
2022-09-24T12:24:59.431Z,15.00
2022-09-24T12:27:36.740Z,15.00
2022-09-24T12:30:51.268Z,15.20
2022-09-24T12:33:23.062Z,15.30
2022-09-24T12:36:04.395Z,15.40
2022-09-24T12:38:34.219Z,15.40
2022-09-24T12:41:36.551Z,15.40
2022-09-24T12:44:14.388Z,15.40
2022-09-24T12:46:48.808Z,15.40
2022-09-24T12:49:38.815Z,15.30
2022-09-24T12:52:18.948Z,15.20
2022-09-24T12:54:46.391Z,15.10
2022-09-24T12:57:15.233Z,15.00
2022-09-24T13:00:14.042Z,15.00
2022-09-24T13:02:47.921Z,14.90
2022-09-24T13:05:18.253Z,14.80
2022-09-24T13:07:56.638Z,14.80
2022-09-24T13:10:24.872Z,14.70
2022-09-24T13:12:52.485Z,14.70
2022-09-24T13:15:40.291Z,14.70
2022-09-24T13:18:10.892Z,14.60
2022-09-24T13:20:43.833Z,14.60
2022-09-24T13:23:21.931Z,14.60
2022-09-24T13:26:05.217Z,14.50
2022-09-24T13:28:38.742Z,14.40
2022-09-24T13:31:09.702Z,14.40
2022-09-24T13:33:43.929Z,14.40
2022-09-24T13:36:17.095Z,14.40
2022-09-24T13:39:03.006Z,14.50
2022-09-24T13:41:48.677Z,14.70
2022-09-24T13:44:48.654Z,14.90
2022-09-24T13:47:40.473Z,15.00
2022-09-24T13:50:29.175Z,15.20
2022-09-24T13:53:07.493Z,15.20
2022-09-24T13:55:39.774Z,15.20
2022-09-24T13:58:25.854Z,15.30
2022-09-24T14:00:52.771Z,15.30
2022-09-24T14:03:29.902Z,15.30
2022-09-24T14:05:59.550Z,15.20
2022-09-24T14:08:28.325Z,15.20
2022-09-24T14:11:26.854Z,15.20
2022-09-24T14:13:56.327Z,15.20
2022-09-24T14:16:25.330Z,15.20
2022-09-24T14:19:03.576Z,15.20
2022-09-24T14:21:38.392Z,15.10
2022-09-24T14:24:27.418Z,15.10
2022-09-24T14:27:09.901Z,15.20
2022-09-24T14:30:02.327Z,15.10
2022-09-24T14:32:32.466Z,15.10
2022-09-24T14:35:08.047Z,15.10
2022-09-24T14:37:39.199Z,15.10
2022-09-24T14:40:14.417Z,15.10
2022-09-24T14:42:46.349Z,15.00
2022-09-24T14:45:21.032Z,15.00
2022-09-24T14:47:58.984Z,15.00
2022-09-24T14:50:44.106Z,14.90
2022-09-24T14:53:34.230Z,14.90
2022-09-24T14:56:18.142Z,14.90
2022-09-24T14:58:45.057Z,14.90
2022-09-24T15:01:17.726Z,14.90
2022-09-24T15:03:51.870Z,15.00
2022-09-24T15:06:24.715Z,15.00
2022-09-24T15:09:15.707Z,15.00
2022-09-24T15:11:43.804Z,15.00
2022-09-24T15:14:16.614Z,15.10
2022-09-24T15:16:46.840Z,15.10
2022-09-24T15:19:21.559Z,15.10
2022-09-24T15:21:50.633Z,15.00
2022-09-24T15:24:18.368Z,15.00
2022-09-24T15:26:48.203Z,15.00
2022-09-24T15:29:24.224Z,14.90
2022-09-24T15:31:52.156Z,14.90
2022-09-24T15:34:20.536Z,14.90
2022-09-24T15:36:55.745Z,15.00
2022-09-24T15:39:25.080Z,14.90
2022-09-24T15:41:51.923Z,14.80
2022-09-24T15:44:26.236Z,14.80
2022-09-24T15:46:55.369Z,14.70
2022-09-24T15:52:26.420Z,14.60
2022-09-24T15:54:55.728Z,14.60
2022-09-24T15:57:23.062Z,14.60
2022-09-24T15:59:51.159Z,14.50
2022-09-24T16:02:24.058Z,14.50
2022-09-24T16:04:51.230Z,14.40
2022-09-24T16:07:18.503Z,14.40
2022-09-24T16:09:45.415Z,14.40
2022-09-24T16:12:15.903Z,14.40
2022-09-24T16:14:43.035Z,14.30
2022-09-24T16:17:10.345Z,14.30
2022-09-24T16:19:37.467Z,14.20
2022-09-24T16:22:04.612Z,14.20
2022-09-24T16:24:35.153Z,14.20
2022-09-24T16:27:02.448Z,14.20
2022-09-24T16:30:04.820Z,14.10
2022-09-24T16:32:31.887Z,14.10
2022-09-24T16:34:59.397Z,14.00
2022-09-24T16:37:26.401Z,14.00
2022-09-24T16:39:55.120Z,14.00
2022-09-24T16:42:27.638Z,14.00
2022-09-24T16:44:54.997Z,14.00
2022-09-24T16:47:22.032Z,13.90
2022-09-24T16:49:49.353Z,13.90
2022-09-24T16:52:16.240Z,13.90
2022-09-24T16:54:44.024Z,13.80
2022-09-24T16:57:12.520Z,13.80
2022-09-24T16:59:39.692Z,13.80
2022-09-24T17:02:08.085Z,13.80
2022-09-24T17:04:35.892Z,13.80
2022-09-24T17:07:02.945Z,13.70
2022-09-24T17:09:48.644Z,13.70
2022-09-24T17:12:15.585Z,13.70
2022-09-24T17:14:42.472Z,13.60
2022-09-24T17:17:09.197Z,13.60
2022-09-24T17:19:36.408Z,13.60
2022-09-24T17:22:03.297Z,13.60
2022-09-24T17:24:30.689Z,13.60
2022-09-24T17:26:57.625Z,13.50
2022-09-24T17:29:30.350Z,13.50
2022-09-24T17:31:58.267Z,13.50
2022-09-24T17:34:25.249Z,13.50
2022-09-24T17:36:52.003Z,13.50
2022-09-24T17:39:19.053Z,13.50
2022-09-24T17:41:45.997Z,13.40
2022-09-24T17:44:13.248Z,13.40
2022-09-24T17:46:40.331Z,13.40
2022-09-24T17:49:07.339Z,13.40
2022-09-24T17:51:36.415Z,13.30
2022-09-24T17:54:06.972Z,13.40
2022-09-24T17:56:38.633Z,13.30
2022-09-24T17:59:07.983Z,13.30
2022-09-24T18:01:37.212Z,13.30
2022-09-24T18:04:06.617Z,13.30
2022-09-24T18:06:37.366Z,13.20
2022-09-24T18:09:04.621Z,13.20
2022-09-24T18:11:58.051Z,13.20
2022-09-24T18:14:25.784Z,13.20
2022-09-24T18:16:52.592Z,13.20
2022-09-24T18:19:23.070Z,13.20
2022-09-24T18:21:49.956Z,13.20
2022-09-24T18:24:17.177Z,13.20
2022-09-24T18:26:44.222Z,13.20
2022-09-24T18:29:16.838Z,13.20
2022-09-24T18:31:44.813Z,13.10
2022-09-24T18:34:14.765Z,13.10
2022-09-24T18:36:43.164Z,13.20
2022-09-24T18:39:13.526Z,13.10
2022-09-24T18:41:41.745Z,13.10
2022-09-24T18:44:09.234Z,13.10
2022-09-24T18:46:36.214Z,13.10
2022-09-24T18:49:03.353Z,13.10
2022-09-24T18:51:32.950Z,13.10
2022-09-24T18:54:08.428Z,13.00
2022-09-24T18:56:36.575Z,13.00
2022-09-24T18:59:21.367Z,13.00
2022-09-24T19:01:50.855Z,13.00
2022-09-24T19:04:18.589Z,12.90
2022-09-24T19:06:48.373Z,13.00
2022-09-24T19:09:17.415Z,12.90
2022-09-24T19:11:45.635Z,12.90
2022-09-24T19:14:14.911Z,12.90
2022-09-24T19:16:41.724Z,12.90
2022-09-24T19:19:10.520Z,12.90
2022-09-24T19:21:38.058Z,12.90
2022-09-24T19:24:06.712Z,12.90
2022-09-24T19:26:35.398Z,12.90
2022-09-24T19:29:03.260Z,12.90
2022-09-24T19:31:33.277Z,12.90
2022-09-24T19:34:03.851Z,12.90
2022-09-24T19:36:36.213Z,12.80
2022-09-24T19:39:05.587Z,12.80
2022-09-24T19:41:32.574Z,12.90
2022-09-24T19:44:03.203Z,12.90
2022-09-24T19:46:33.489Z,12.80
2022-09-24T19:49:01.159Z,12.80
2022-09-24T19:51:30.197Z,12.80
2022-09-24T19:54:00.194Z,12.80
2022-09-24T19:56:27.775Z,12.80
2022-09-24T19:58:56.736Z,12.80
2022-09-24T20:01:28.212Z,12.80
2022-09-24T20:03:56.035Z,12.80
2022-09-24T20:06:25.494Z,12.70
2022-09-24T20:08:52.507Z,12.70
2022-09-24T20:11:21.670Z,12.70
2022-09-24T20:13:49.958Z,12.70
2022-09-24T20:16:20.946Z,12.60
2022-09-24T20:18:49.149Z,12.60
2022-09-24T20:21:17.880Z,12.70
2022-09-24T20:23:46.615Z,12.60
2022-09-24T20:26:32.845Z,12.60
2022-09-24T20:28:59.851Z,12.60
2022-09-24T20:31:26.686Z,12.50
2022-09-24T20:34:00.099Z,12.50
2022-09-24T20:36:27.000Z,12.50
2022-09-24T20:38:53.761Z,12.50
2022-09-24T20:41:23.511Z,12.50
2022-09-24T20:43:51.175Z,12.50
2022-09-24T20:46:22.030Z,12.50
2022-09-24T20:48:49.012Z,12.40
2022-09-24T20:51:18.388Z,12.40
2022-09-24T20:53:46.362Z,12.40
2022-09-24T20:56:13.733Z,12.40
2022-09-24T20:58:40.850Z,12.40
2022-09-24T21:01:09.472Z,12.40
2022-09-24T21:03:46.257Z,12.40
2022-09-24T21:06:14.986Z,12.30
2022-09-24T21:08:44.321Z,12.30
2022-09-24T21:11:18.173Z,12.30
2022-09-24T21:13:50.324Z,12.20
2022-09-24T21:16:22.816Z,12.20
2022-09-24T21:18:51.010Z,12.10
2022-09-24T21:21:20.822Z,12.10
2022-09-24T21:23:50.458Z,12.10
2022-09-24T21:26:23.502Z,12.00
2022-09-24T21:28:56.404Z,12.00
2022-09-24T21:31:31.258Z,12.00
2022-09-24T21:33:58.526Z,11.90
2022-09-24T21:36:29.430Z,11.90
2022-09-24T21:39:01.786Z,11.80
2022-09-24T21:41:31.386Z,11.80
2022-09-24T21:43:59.061Z,11.80
2022-09-24T21:46:42.639Z,11.70
2022-09-24T21:49:18.699Z,11.70
2022-09-24T21:51:49.054Z,11.70
2022-09-24T21:54:22.347Z,11.70
2022-09-24T21:56:51.743Z,11.60
2022-09-24T21:59:40.504Z,11.50
2022-09-24T22:02:20.368Z,11.50
2022-09-24T22:04:49.180Z,11.50
2022-09-24T22:07:22.562Z,11.40
2022-09-24T22:09:51.914Z,11.40
2022-09-24T22:12:21.852Z,11.30
2022-09-24T22:15:46.157Z,11.30
2022-09-24T22:21:36.818Z,11.20
2022-09-24T22:24:15.190Z,11.20
2022-09-24T22:32:34.024Z,11.20
2022-09-24T22:35:20.088Z,11.20
2022-09-24T22:37:47.369Z,11.20
2022-09-24T22:40:14.605Z,11.20
2022-09-24T22:42:43.715Z,11.20
2022-09-24T22:45:11.277Z,11.20
2022-09-24T22:47:38.418Z,11.20
2022-09-24T22:50:07.999Z,11.20
2022-09-24T22:52:38.091Z,11.20
2022-09-24T22:55:05.888Z,11.20
2022-09-24T22:57:36.876Z,11.20
2022-09-24T23:25:06.722Z,10.70
2022-09-24T23:41:49.852Z,10.50
2022-09-24T23:44:27.545Z,10.50
2022-09-24T23:46:55.707Z,10.50
2022-09-24T23:59:02.221Z,10.50
